createdAt,value
2023-01-24T00:00:47.107Z,7.18
2023-01-24T00:03:13.613Z,7.22
2023-01-24T00:05:44.991Z,5.82
2023-01-24T00:08:15.170Z,6.25
2023-01-24T00:10:41.766Z,5.90
2023-01-24T00:13:10.561Z,6.18
2023-01-24T00:15:36.770Z,6.53
2023-01-24T00:18:03.107Z,6.18
2023-01-24T00:20:29.317Z,5.88
2023-01-24T00:22:55.526Z,5.45
2023-01-24T00:25:23.426Z,6.20
2023-01-24T00:27:49.868Z,6.13
2023-01-24T00:30:16.192Z,5.43
2023-01-24T00:32:42.460Z,5.72
2023-01-24T00:35:08.822Z,6.40
2023-01-24T00:37:35.197Z,6.72
2023-01-24T00:40:01.401Z,5.78
2023-01-24T00:42:27.605Z,6.50
2023-01-24T00:44:53.813Z,6.13
2023-01-24T00:47:20.073Z,5.40
2023-01-24T00:49:46.332Z,5.82
2023-01-24T00:52:12.759Z,5.78
2023-01-24T00:54:39.265Z,6.82
2023-01-24T00:57:05.469Z,5.95
2023-01-24T00:59:31.703Z,6.05
2023-01-24T01:01:57.899Z,6.00
2023-01-24T01:04:24.144Z,6.18
2023-01-24T01:06:50.334Z,6.97
2023-01-24T01:09:16.550Z,6.82
2023-01-24T01:11:42.798Z,6.10
2023-01-24T01:14:09.733Z,7.00
2023-01-24T01:16:38.654Z,5.82
2023-01-24T01:19:06.123Z,6.15
2023-01-24T01:21:32.379Z,6.85
2023-01-24T01:23:58.648Z,4.95
2023-01-24T01:26:24.853Z,5.68
2023-01-24T01:28:51.808Z,5.80
2023-01-24T01:31:18.128Z,7.22
2023-01-24T01:33:44.869Z,7.40
2023-01-24T01:36:11.214Z,7.47
2023-01-24T01:38:37.408Z,6.22
2023-01-24T01:41:05.155Z,7.60
2023-01-24T01:43:31.760Z,7.45
2023-01-24T01:46:03.788Z,7.43
2023-01-24T01:48:35.395Z,6.15
2023-01-24T01:51:13.214Z,6.80
2023-01-24T01:53:45.238Z,7.00
2023-01-24T01:56:20.470Z,6.95
2023-01-24T01:58:46.782Z,6.65
2023-01-24T02:01:13.128Z,6.68
2023-01-24T02:03:43.994Z,6.78
2023-01-24T02:06:36.700Z,7.38
2023-01-24T02:09:05.237Z,6.20
2023-01-24T02:11:40.629Z,7.55
2023-01-24T02:14:27.069Z,6.78
2023-01-24T02:16:53.318Z,6.10
2023-01-24T02:19:32.851Z,4.80
2023-01-24T02:22:04.293Z,6.90
2023-01-24T02:24:35.038Z,7.70
2023-01-24T02:27:01.564Z,7.28
2023-01-24T02:29:27.764Z,7.13
2023-01-24T02:31:57.052Z,7.53
2023-01-24T02:34:23.533Z,6.93
2023-01-24T02:37:04.607Z,7.70
2023-01-24T02:42:00.414Z,7.47
2023-01-24T02:44:30.089Z,6.75
2023-01-24T02:46:56.287Z,8.13
2023-01-24T02:49:22.516Z,7.88
2023-01-24T02:52:07.309Z,7.88
2023-01-24T02:54:34.072Z,8.00
2023-01-24T02:57:19.149Z,7.38
2023-01-24T02:59:45.371Z,7.28
2023-01-24T03:02:11.635Z,8.00
2023-01-24T03:04:37.836Z,6.93
2023-01-24T03:07:04.177Z,7.25
2023-01-24T03:09:36.795Z,7.93
2023-01-24T03:12:22.477Z,7.93
2023-01-24T03:15:07.515Z,7.65
2023-01-24T03:17:52.281Z,8.05
2023-01-24T03:20:37.169Z,7.68
2023-01-24T03:23:21.963Z,7.53
2023-01-24T03:26:06.693Z,7.60
2023-01-24T03:28:51.454Z,5.43
2023-01-24T03:31:36.349Z,6.93
2023-01-24T03:34:21.087Z,8.18
2023-01-24T03:36:47.283Z,6.22
2023-01-24T03:39:32.336Z,7.93
2023-01-24T03:41:58.587Z,7.07
2023-01-24T03:44:24.770Z,7.07
2023-01-24T03:46:51.071Z,8.02
2023-01-24T03:49:17.814Z,7.57
2023-01-24T03:52:02.594Z,8.60
2023-01-24T03:54:28.802Z,8.52
2023-01-24T03:56:55.059Z,8.82
2023-01-24T03:59:21.379Z,8.00
2023-01-24T04:01:47.629Z,8.73
2023-01-24T04:04:13.821Z,7.68
2023-01-24T04:06:40.022Z,7.78
2023-01-24T04:09:06.263Z,8.18
2023-01-24T04:11:32.445Z,8.32
2023-01-24T04:13:58.633Z,8.20
2023-01-24T04:16:25.056Z,8.63
2023-01-24T04:18:51.297Z,8.80
2023-01-24T04:21:17.505Z,8.40
2023-01-24T04:23:43.732Z,9.18
2023-01-24T04:26:09.948Z,8.55
2023-01-24T04:28:36.143Z,8.68
2023-01-24T04:31:02.949Z,7.82
2023-01-24T04:33:29.410Z,8.13
2023-01-24T04:35:59.190Z,8.68
2023-01-24T04:38:25.443Z,8.15
2023-01-24T04:41:01.626Z,7.97
2023-01-24T04:43:28.384Z,7.78
2023-01-24T04:45:58.023Z,7.97
2023-01-24T04:48:24.306Z,8.60
2023-01-24T04:50:50.929Z,7.53
2023-01-24T04:53:17.112Z,8.15
2023-01-24T04:55:43.325Z,6.95
2023-01-24T04:58:09.605Z,7.97
2023-01-24T05:00:35.832Z,8.50
2023-01-24T05:03:02.095Z,8.45
2023-01-24T05:05:28.332Z,9.20
2023-01-24T05:07:54.541Z,8.60
2023-01-24T05:10:22.205Z,7.97
2023-01-24T05:12:48.499Z,9.25
2023-01-24T05:15:14.734Z,8.80
2023-01-24T05:17:43.677Z,9.70
2023-01-24T05:20:10.335Z,8.80
2023-01-24T05:22:36.734Z,9.27
2023-01-24T05:25:03.248Z,8.77
2023-01-24T05:27:29.485Z,8.25
2023-01-24T05:29:55.676Z,8.75
2023-01-24T05:32:21.997Z,7.60
2023-01-24T05:34:48.238Z,8.73
2023-01-24T05:37:14.514Z,9.60
2023-01-24T05:39:41.091Z,9.13
2023-01-24T05:42:07.333Z,8.90
2023-01-24T05:44:33.519Z,8.82
2023-01-24T05:46:59.782Z,9.02
2023-01-24T05:49:26.016Z,9.60
2023-01-24T05:51:52.251Z,9.57
2023-01-24T05:54:18.485Z,8.52
2023-01-24T05:56:44.691Z,8.65
2023-01-24T05:59:11.427Z,9.25
2023-01-24T06:01:37.643Z,8.55
2023-01-24T06:04:05.728Z,9.00
2023-01-24T06:06:32.009Z,8.70
2023-01-24T06:08:58.221Z,9.43
2023-01-24T06:11:27.535Z,10.05
2023-01-24T06:13:54.464Z,9.18
2023-01-24T06:16:21.879Z,9.57
2023-01-24T06:18:48.702Z,9.55
2023-01-24T06:21:28.787Z,9.35
2023-01-24T06:23:55.344Z,8.20
2023-01-24T06:26:21.726Z,8.30
2023-01-24T06:28:48.139Z,9.43
2023-01-24T06:31:24.086Z,9.40
2023-01-24T06:33:50.335Z,9.48
2023-01-24T06:36:19.612Z,9.73
2023-01-24T06:38:45.965Z,9.40
2023-01-24T06:41:15.287Z,8.60
2023-01-24T06:43:41.701Z,8.35
2023-01-24T06:46:09.173Z,8.73
2023-01-24T06:48:35.426Z,7.10
2023-01-24T06:51:01.761Z,9.23
2023-01-24T06:53:27.964Z,9.65
2023-01-24T06:55:54.258Z,6.03
2023-01-24T06:58:20.455Z,8.70
2023-01-24T07:00:46.837Z,8.75
2023-01-24T07:03:13.097Z,8.48
2023-01-24T07:05:39.871Z,9.65
2023-01-24T07:08:06.859Z,8.32
2023-01-24T07:10:33.612Z,8.60
2023-01-24T07:12:59.900Z,9.35
2023-01-24T07:15:26.121Z,9.48
2023-01-24T07:17:52.561Z,9.48
2023-01-24T07:20:18.972Z,9.18
2023-01-24T07:22:45.248Z,8.93
2023-01-24T07:25:15.935Z,9.13
2023-01-24T07:27:45.254Z,8.77
2023-01-24T07:30:12.582Z,8.32
2023-01-24T07:32:39.400Z,10.13
2023-01-24T07:35:06.013Z,9.65
2023-01-24T07:37:32.753Z,9.15
2023-01-24T07:39:58.963Z,9.45
2023-01-24T07:42:25.309Z,8.00
2023-01-24T07:44:51.607Z,8.27
2023-01-24T07:47:18.222Z,8.85
2023-01-24T07:49:44.457Z,8.70
2023-01-24T07:52:10.814Z,9.13
2023-01-24T07:54:37.029Z,9.75
2023-01-24T07:57:03.270Z,8.70
2023-01-24T07:59:38.341Z,8.43
2023-01-24T08:02:05.549Z,8.48
2023-01-24T08:04:32.102Z,9.40
2023-01-24T08:07:16.933Z,8.50
2023-01-24T08:09:43.400Z,8.50
2023-01-24T08:12:09.632Z,8.57
2023-01-24T08:14:35.913Z,8.85
2023-01-24T08:17:02.123Z,9.85
2023-01-24T08:19:53.864Z,7.75
2023-01-24T08:22:14.535Z,8.00
2023-01-24T08:24:40.780Z,9.02
2023-01-24T08:27:06.982Z,8.57
2023-01-24T08:29:33.823Z,7.80
2023-01-24T08:32:00.179Z,9.65
2023-01-24T08:34:26.672Z,9.45
2023-01-24T08:36:53.376Z,8.65
2023-01-24T08:39:24.689Z,9.48
2023-01-24T08:41:54.867Z,10.63
2023-01-24T08:44:21.131Z,8.88
2023-01-24T08:46:47.353Z,8.68
2023-01-24T08:49:13.644Z,9.18
2023-01-24T08:51:39.840Z,7.68
2023-01-24T08:54:06.783Z,7.88
2023-01-24T08:56:34.045Z,8.65
2023-01-24T08:59:00.260Z,7.85
2023-01-24T09:01:27.257Z,7.15
2023-01-24T09:03:55.743Z,7.75
2023-01-24T09:06:22.090Z,7.43
2023-01-24T09:08:48.375Z,6.53
2023-01-24T09:11:14.621Z,6.25
2023-01-24T09:13:40.906Z,7.00
2023-01-24T09:16:07.273Z,6.55
2023-01-24T09:18:33.502Z,7.40
2023-01-24T09:21:03.650Z,7.80
2023-01-24T09:23:30.191Z,6.67
2023-01-24T09:25:56.583Z,5.60
2023-01-24T09:28:22.826Z,7.38
2023-01-24T09:30:49.836Z,7.13
2023-01-24T09:33:18.002Z,6.78
2023-01-24T09:35:53.929Z,8.05
2023-01-24T09:38:20.869Z,7.28
2023-01-24T09:40:51.577Z,7.10
2023-01-24T09:43:33.023Z,6.40
2023-01-24T09:46:05.837Z,7.38
2023-01-24T09:48:33.944Z,6.95
2023-01-24T09:51:02.763Z,7.28
2023-01-24T09:53:38.085Z,7.32
2023-01-24T09:56:05.554Z,6.88
2023-01-24T09:58:40.919Z,7.03
2023-01-24T10:01:11.840Z,8.90
2023-01-24T10:03:38.569Z,7.30
2023-01-24T10:06:13.571Z,7.57
2023-01-24T10:08:54.500Z,7.50
2023-01-24T10:11:25.890Z,6.82
2023-01-24T10:14:00.727Z,7.00
2023-01-24T10:16:33.111Z,7.75
2023-01-24T10:19:02.358Z,7.88
2023-01-24T10:21:28.576Z,6.15
2023-01-24T10:23:57.129Z,6.43
2023-01-24T10:26:26.180Z,5.90
2023-01-24T10:28:54.224Z,6.53
2023-01-24T10:31:38.095Z,6.82
2023-01-24T10:34:16.957Z,5.22
2023-01-24T10:36:51.392Z,6.22
2023-01-24T10:39:17.598Z,6.05
2023-01-24T10:41:43.813Z,4.72
2023-01-24T10:44:15.331Z,6.35
2023-01-24T10:47:00.306Z,6.18
2023-01-24T10:49:28.733Z,5.32
2023-01-24T10:52:13.914Z,6.03
2023-01-24T10:54:44.199Z,6.00
2023-01-24T10:57:25.636Z,5.82
2023-01-24T10:59:52.179Z,5.50
2023-01-24T11:02:23.144Z,5.18
2023-01-24T11:07:27.831Z,5.70
2023-01-24T11:09:54.068Z,5.82
2023-01-24T11:12:21.562Z,4.75
2023-01-24T11:14:49.296Z,5.45
2023-01-24T11:17:32.721Z,5.70
2023-01-24T11:20:37.539Z,5.50
2023-01-24T11:23:16.115Z,5.05
2023-01-24T11:25:54.311Z,6.22
2023-01-24T11:28:27.255Z,5.32
2023-01-24T11:30:55.309Z,5.07
2023-01-24T11:33:40.426Z,5.47
2023-01-24T11:36:23.662Z,6.15
2023-01-24T11:38:50.147Z,5.10
2023-01-24T11:41:22.792Z,5.55
2023-01-24T11:44:07.391Z,5.15
2023-01-24T11:46:45.838Z,5.15
2023-01-24T11:49:15.178Z,5.65
2023-01-24T11:51:54.357Z,5.50
2023-01-24T11:54:40.860Z,6.45
2023-01-24T11:57:07.290Z,6.32
2023-01-24T11:59:33.500Z,5.47
2023-01-24T12:02:05.637Z,5.68
2023-01-24T12:04:50.783Z,5.57
2023-01-24T12:07:22.313Z,5.65
2023-01-24T12:09:50.037Z,5.40
2023-01-24T12:12:31.899Z,5.85
2023-01-24T12:15:01.220Z,5.40
2023-01-24T12:17:42.860Z,5.45
2023-01-24T12:20:31.568Z,5.28
2023-01-24T12:23:00.284Z,4.07
2023-01-24T12:25:31.292Z,5.75
2023-01-24T12:30:30.019Z,5.90
2023-01-24T12:33:03.309Z,5.68
2023-01-24T12:35:34.375Z,5.30
2023-01-24T12:40:52.237Z,5.47
2023-01-24T12:43:37.179Z,5.78
2023-01-24T12:46:12.229Z,5.18
2023-01-24T12:48:38.486Z,4.68
2023-01-24T12:51:04.727Z,4.78
2023-01-24T12:53:35.290Z,6.10
2023-01-24T12:56:04.305Z,5.25
2023-01-24T12:58:33.226Z,5.65
2023-01-24T13:01:10.898Z,5.50
2023-01-24T13:03:45.351Z,5.10
2023-01-24T13:06:30.284Z,5.53
2023-01-24T13:08:56.692Z,5.07
2023-01-24T13:11:29.149Z,5.85
2023-01-24T13:13:58.718Z,5.70
2023-01-24T13:16:40.288Z,5.30
2023-01-24T13:19:09.544Z,4.90
2023-01-24T13:21:49.845Z,5.40
2023-01-24T13:24:28.110Z,5.83
2023-01-24T13:26:57.370Z,8.73
2023-01-24T13:29:32.702Z,5.65
2023-01-24T13:32:13.652Z,5.65
2023-01-24T13:34:45.060Z,7.38
2023-01-24T13:37:17.468Z,5.20
2023-01-24T13:39:44.769Z,5.75
2023-01-24T13:42:20.287Z,6.10
2023-01-24T13:44:46.541Z,6.07
2023-01-24T13:47:19.054Z,5.75
2023-01-24T13:49:46.607Z,5.32
2023-01-24T13:52:31.545Z,5.43
2023-01-24T13:54:57.886Z,5.72
2023-01-24T13:57:26.132Z,5.43
2023-01-24T14:00:10.726Z,5.50
2023-01-24T14:02:37.450Z,5.05
2023-01-24T14:05:03.795Z,5.05
2023-01-24T14:07:32.040Z,5.60
2023-01-24T14:09:59.947Z,6.22
2023-01-24T14:12:26.408Z,5.07
2023-01-24T14:15:11.167Z,4.40
2023-01-24T14:17:37.392Z,5.13
2023-01-24T14:20:04.369Z,5.20
2023-01-24T14:22:34.485Z,5.72
2023-01-24T14:25:25.477Z,5.83
2023-01-24T14:27:56.014Z,6.15
2023-01-24T14:30:28.118Z,4.85
2023-01-24T14:32:58.031Z,5.10
2023-01-24T14:35:28.156Z,5.47
2023-01-24T14:37:54.718Z,5.80
2023-01-24T14:40:21.019Z,6.03
2023-01-24T14:42:51.710Z,5.57
2023-01-24T14:45:20.806Z,5.22
2023-01-24T14:47:48.184Z,5.45
2023-01-24T14:50:34.027Z,4.60
2023-01-24T14:53:01.035Z,4.60
2023-01-24T14:55:27.246Z,5.47
2023-01-24T14:57:54.152Z,5.30
2023-01-24T15:00:21.783Z,5.40
2023-01-24T15:02:52.295Z,5.50
2023-01-24T15:05:23.223Z,5.72
2023-01-24T15:07:49.510Z,5.13
2023-01-24T15:10:16.109Z,6.15
2023-01-24T15:12:42.370Z,6.20
2023-01-24T15:15:16.185Z,5.55
2023-01-24T15:17:44.898Z,6.13
2023-01-24T15:20:12.004Z,5.82
2023-01-24T15:22:39.532Z,5.63
2023-01-24T15:25:19.080Z,5.72
2023-01-24T15:27:45.516Z,6.35
2023-01-24T15:30:17.528Z,7.00
2023-01-24T15:32:45.187Z,5.72
2023-01-24T15:35:20.266Z,6.65
2023-01-24T15:37:46.520Z,5.80
2023-01-24T15:40:18.053Z,6.43
2023-01-24T15:43:06.946Z,6.18
2023-01-24T15:45:39.003Z,6.05
2023-01-24T15:48:11.500Z,5.45
2023-01-24T15:50:56.633Z,5.70
2023-01-24T15:53:29.619Z,6.60
2023-01-24T15:56:04.543Z,6.35
2023-01-24T15:58:32.042Z,7.35
2023-01-24T16:00:59.225Z,8.07
2023-01-24T16:03:25.936Z,6.63
2023-01-24T16:05:52.251Z,7.57
2023-01-24T16:08:19.077Z,6.88
2023-01-24T16:10:46.058Z,8.60
2023-01-24T16:13:25.737Z,7.55
2023-01-24T16:15:52.016Z,8.25
2023-01-24T16:18:18.292Z,7.80
2023-01-24T16:20:44.560Z,7.68
2023-01-24T16:23:10.758Z,6.78
2023-01-24T16:25:37.255Z,6.78
2023-01-24T16:28:04.161Z,7.10
2023-01-24T16:30:30.424Z,6.47
2023-01-24T16:32:56.753Z,6.50
2023-01-24T16:35:23.246Z,5.57
2023-01-24T16:37:49.452Z,7.50
2023-01-24T16:40:16.928Z,7.25
2023-01-24T16:42:44.548Z,7.30
2023-01-24T16:45:15.264Z,7.10
2023-01-24T16:47:41.555Z,6.10
2023-01-24T16:50:08.211Z,7.07
2023-01-24T16:52:34.407Z,7.80
2023-01-24T16:55:00.665Z,5.50
2023-01-24T16:57:26.871Z,6.47
2023-01-24T16:59:53.052Z,7.50
2023-01-24T17:02:19.432Z,7.13
2023-01-24T17:04:47.819Z,7.50
2023-01-24T17:07:14.438Z,7.03
2023-01-24T17:09:40.690Z,7.60
2023-01-24T17:12:14.440Z,7.18
2023-01-24T17:14:42.183Z,6.68
2023-01-24T17:17:28.519Z,7.30
2023-01-24T17:19:54.744Z,7.05
2023-01-24T17:22:21.009Z,7.60
2023-01-24T17:24:47.227Z,5.95
2023-01-24T17:27:13.840Z,7.78
2023-01-24T17:29:40.071Z,8.32
2023-01-24T17:32:06.676Z,7.82
2023-01-24T17:34:32.991Z,7.60
2023-01-24T17:36:59.495Z,7.80
2023-01-24T17:39:25.721Z,7.93
2023-01-24T17:41:52.001Z,8.13
2023-01-24T17:44:18.623Z,7.88
2023-01-24T17:46:45.318Z,9.30
2023-01-24T17:49:11.696Z,8.57
2023-01-24T17:51:37.948Z,8.18
2023-01-24T17:54:04.880Z,7.85
2023-01-24T17:56:32.269Z,8.68
2023-01-24T17:58:58.873Z,7.88
2023-01-24T18:01:25.074Z,8.13
2023-01-24T18:03:51.286Z,7.68
2023-01-24T18:06:18.805Z,8.43
2023-01-24T18:08:47.179Z,9.23
2023-01-24T18:11:14.995Z,8.13
2023-01-24T18:13:42.130Z,7.93
2023-01-24T18:16:10.208Z,8.07
2023-01-24T18:18:37.204Z,9.23
2023-01-24T18:21:09.538Z,8.73
2023-01-24T18:23:35.776Z,7.80
2023-01-24T18:26:02.312Z,8.10
2023-01-24T18:28:28.572Z,7.53
2023-01-24T18:30:54.790Z,8.85
2023-01-24T18:33:21.057Z,9.57
2023-01-24T18:35:47.259Z,8.10
2023-01-24T18:38:13.516Z,7.47
2023-01-24T18:40:39.723Z,9.00
2023-01-24T18:43:06.325Z,8.65
2023-01-24T18:45:32.557Z,9.18
2023-01-24T18:47:58.813Z,9.43
2023-01-24T18:50:25.025Z,8.20
2023-01-24T18:52:55.164Z,5.93
2023-01-24T18:55:21.462Z,7.27
2023-01-24T18:57:47.701Z,7.60
2023-01-24T19:00:14.165Z,7.72
2023-01-24T19:02:43.536Z,8.20
2023-01-24T19:05:09.721Z,8.07
2023-01-24T19:07:39.377Z,7.28
2023-01-24T19:10:08.733Z,7.55
2023-01-24T19:12:35.338Z,7.55
2023-01-24T19:15:01.608Z,7.57
2023-01-24T19:17:29.245Z,7.50
2023-01-24T19:19:55.571Z,7.15
2023-01-24T19:22:23.018Z,7.22
2023-01-24T19:24:49.515Z,7.78
2023-01-24T19:27:16.795Z,7.63
2023-01-24T19:29:43.919Z,7.45
2023-01-24T19:32:10.154Z,7.40
2023-01-24T19:34:36.360Z,7.55
2023-01-24T19:37:02.560Z,7.25
2023-01-24T19:39:28.832Z,8.05
2023-01-24T19:41:55.037Z,9.38
2023-01-24T19:44:22.366Z,8.02
2023-01-24T19:46:49.851Z,7.88
2023-01-24T19:49:16.735Z,9.15
2023-01-24T19:51:42.957Z,10.95
2023-01-24T19:54:09.196Z,9.63
2023-01-24T19:56:36.979Z,11.45
2023-01-24T19:59:04.125Z,8.15
2023-01-24T20:01:30.363Z,7.80
2023-01-24T20:04:02.767Z,7.60
2023-01-24T20:06:36.956Z,8.47
2023-01-24T20:09:03.439Z,9.32
2023-01-24T20:11:29.778Z,7.93
2023-01-24T20:13:56.240Z,8.90
2023-01-24T20:16:23.922Z,9.05
2023-01-24T20:18:51.343Z,8.25
2023-01-24T20:21:17.683Z,9.43
2023-01-24T20:23:44.118Z,8.48
2023-01-24T20:26:10.513Z,8.43
2023-01-24T20:28:37.247Z,8.73
2023-01-24T20:31:04.636Z,9.38
2023-01-24T20:33:30.878Z,8.88
2023-01-24T20:35:57.855Z,8.10
2023-01-24T20:38:32.490Z,8.95
2023-01-24T20:41:04.080Z,8.50
2023-01-24T20:43:30.585Z,8.32
2023-01-24T20:46:04.007Z,8.15
2023-01-24T20:48:30.568Z,8.35
2023-01-24T20:50:57.292Z,8.18
2023-01-24T20:53:23.564Z,8.75
2023-01-24T20:55:56.582Z,9.35
2023-01-24T20:58:23.332Z,9.05
2023-01-24T21:00:50.425Z,9.07
2023-01-24T21:03:17.025Z,8.90
2023-01-24T21:05:43.406Z,8.85
2023-01-24T21:08:09.637Z,8.15
2023-01-24T21:10:36.162Z,8.45
2023-01-24T21:13:02.849Z,7.40
2023-01-24T21:15:29.093Z,9.20
2023-01-24T21:17:55.361Z,8.00
2023-01-24T21:20:21.713Z,8.88
2023-01-24T21:22:51.603Z,8.73
2023-01-24T21:25:17.808Z,8.73
2023-01-24T21:27:44.073Z,8.30
2023-01-24T21:30:10.570Z,8.40
2023-01-24T21:32:36.766Z,8.45
2023-01-24T21:35:03.031Z,8.20
2023-01-24T21:37:30.242Z,8.10
2023-01-24T21:39:56.456Z,6.40
2023-01-24T21:42:22.697Z,8.88
2023-01-24T21:44:48.947Z,8.48
2023-01-24T21:47:17.421Z,8.27
2023-01-24T21:49:44.210Z,8.52
2023-01-24T21:52:11.814Z,8.80
2023-01-24T21:54:38.510Z,8.82
2023-01-24T21:57:31.210Z,7.10
2023-01-24T21:59:59.574Z,8.60
2023-01-24T22:02:27.224Z,8.93
2023-01-24T22:04:54.332Z,8.77
2023-01-24T22:07:22.548Z,9.68
2023-01-24T22:09:50.750Z,8.57
2023-01-24T22:12:16.984Z,7.68
2023-01-24T22:14:43.649Z,7.72
2023-01-24T22:17:14.295Z,8.85
2023-01-24T22:19:44.627Z,8.73
2023-01-24T22:22:20.517Z,8.90
2023-01-24T22:24:52.543Z,8.65
2023-01-24T22:27:20.036Z,8.35
2023-01-24T22:29:47.505Z,8.30
2023-01-24T22:32:14.590Z,8.77
2023-01-24T22:34:41.353Z,8.98
2023-01-24T22:37:13.780Z,9.10
2023-01-24T22:39:40.033Z,9.18
2023-01-24T22:42:06.232Z,9.05
2023-01-24T22:44:32.453Z,9.80
2023-01-24T22:46:58.666Z,9.35
2023-01-24T22:49:24.882Z,9.00
2023-01-24T22:51:51.086Z,9.07
2023-01-24T22:54:17.358Z,9.50
2023-01-24T22:56:43.608Z,8.23
2023-01-24T22:59:09.799Z,8.50
2023-01-24T23:01:36.482Z,9.18
2023-01-24T23:04:07.094Z,9.15
2023-01-24T23:06:33.731Z,9.02
2023-01-24T23:09:00.003Z,9.20
2023-01-24T23:11:26.201Z,9.20
2023-01-24T23:14:11.053Z,9.43
2023-01-24T23:16:50.789Z,9.00
2023-01-24T23:19:50.220Z,9.18
2023-01-24T23:22:17.090Z,8.95
2023-01-24T23:24:43.733Z,9.20
2023-01-24T23:27:09.925Z,9.15
2023-01-24T23:29:36.078Z,8.63
2023-01-24T23:32:03.740Z,9.38
2023-01-24T23:34:39.470Z,9.93
2023-01-24T23:37:05.721Z,9.68
2023-01-24T23:39:32.232Z,8.48
2023-01-24T23:41:58.463Z,9.48
2023-01-24T23:44:24.712Z,8.93
2023-01-24T23:46:50.896Z,10.50
2023-01-24T23:49:17.094Z,9.93
2023-01-24T23:51:43.428Z,9.75
2023-01-24T23:54:09.776Z,10.20
2023-01-24T23:56:35.985Z,7.68
2023-01-24T23:59:02.189Z,10.52
